Time;durP1;ratioP1;P1;durP2;ratioP2;P2;SDS_P1;SDS_P2;PMS_P1;PMS_P2;Temp;Humidity;BMP_temperature;BMP_pressure;BME280_temperature;BME280_humidity;BME280_pressure;Samples;Min_cycle;Max_cycle;Signal;HPM_P1;HPM_P2
2021/10/31 00:01:40;;;;;;;92.80;70.68;;;;;;;10.72;100.00;100382.56;5034938;22;20052;-84
2021/10/31 00:04:07;;;;;;;93.05;68.32;;;;;;;10.80;100.00;100367.38;5046995;28;20063;-82
2021/10/31 00:06:34;;;;;;;93.43;65.60;;;;;;;10.70;100.00;100371.34;5048571;28;20041;-82
2021/10/31 00:09:00;;;;;;;92.32;67.88;;;;;;;10.72;100.00;100366.91;5050620;28;20073;-80
2021/10/31 00:11:27;;;;;;;98.15;68.47;;;;;;;10.80;100.00;100369.97;5052125;28;20041;-81
2021/10/31 00:13:54;;;;;;;95.75;66.80;;;;;;;10.74;100.00;100370.28;5051003;28;20049;-81
2021/10/31 00:16:21;;;;;;;90.57;65.28;;;;;;;10.78;100.00;100365.78;5052662;28;20040;-81
2021/10/31 00:18:48;;;;;;;98.10;67.60;;;;;;;10.85;100.00;100365.38;5051576;28;20090;-81
2021/10/31 00:21:15;;;;;;;91.88;67.03;;;;;;;10.82;100.00;100370.75;5052158;28;20040;-81
2021/10/31 00:23:42;;;;;;;91.38;66.40;;;;;;;10.60;100.00;100372.69;5052064;28;20044;-81
2021/10/31 00:26:09;;;;;;;93.63;68.03;;;;;;;10.65;100.00;100378.53;5051417;28;20079;-81
2021/10/31 00:28:35;;;;;;;91.20;66.75;;;;;;;10.60;100.00;100375.31;5052059;28;20407;-80
2021/10/31 00:31:03;;;;;;;97.57;69.60;;;;;;;10.59;100.00;100371.00;5046698;28;20116;-82
2021/10/31 00:33:31;;;;;;;96.95;69.25;;;;;;;10.60;100.00;100367.47;5042477;28;20103;-83
2021/10/31 00:35:58;;;;;;;92.30;65.30;;;;;;;10.57;100.00;100370.25;5049531;28;20068;-82
2021/10/31 00:38:25;;;;;;;91.35;68.82;;;;;;;10.62;100.00;100365.66;5049317;28;20048;-82
2021/10/31 00:40:52;;;;;;;88.85;67.65;;;;;;;10.50;100.00;100361.91;5044323;28;20116;-82
2021/10/31 00:43:19;;;;;;;85.78;63.80;;;;;;;10.51;100.00;100357.53;5046915;28;20041;-82
2021/10/31 00:45:46;;;;;;;86.32;66.63;;;;;;;10.57;100.00;100352.00;5043894;28;20041;-82
2021/10/31 00:48:13;;;;;;;85.20;64.90;;;;;;;10.44;100.00;100355.22;5046120;28;20119;-82
2021/10/31 00:50:42;;;;;;;93.25;69.03;;;;;;;10.57;100.00;100354.63;5042053;28;20044;-82
2021/10/31 00:53:09;;;;;;;86.28;66.05;;;;;;;10.58;100.00;100351.94;5047189;28;20033;-82
2021/10/31 00:55:38;;;;;;;93.43;68.75;;;;;;;10.51;100.00;100352.31;5045210;28;20041;-82
2021/10/31 00:58:08;;;;;;;88.53;66.35;;;;;;;10.63;100.00;100349.09;5047036;28;20045;-81
2021/10/31 01:00:35;;;;;;;97.32;68.28;;;;;;;10.43;100.00;100348.28;5043044;28;20050;-82
2021/10/31 01:03:01;;;;;;;88.93;66.85;;;;;;;10.49;100.00;100352.34;5038457;28;20510;-82
2021/10/31 01:05:38;;;;;;;94.63;71.28;;;;;;;10.55;100.00;100341.66;5041025;28;20094;-82
2021/10/31 01:08:23;;;;;;;94.28;66.80;;;;;;;10.36;100.00;100343.44;5043817;28;20477;-82
2021/10/31 01:11:20;;;;;;;88.15;64.30;;;;;;;10.61;100.00;100343.13;5046383;28;20422;-82
2021/10/31 01:14:27;;;;;;;93.53;68.25;;;;;;;10.63;100.00;100341.28;5034460;28;20389;-81
2021/10/31 01:17:24;;;;;;;98.78;67.53;;;;;;;10.52;100.00;100335.75;5046910;28;20040;-81
2021/10/31 01:20:06;;;;;;;92.95;68.15;;;;;;;10.51;100.00;100334.06;5055542;28;20694;-81
2021/10/31 01:22:39;;;;;;;95.07;68.50;;;;;;;10.59;100.00;100326.69;5049292;28;20446;-81
2021/10/31 01:25:26;;;;;;;93.72;69.25;;;;;;;10.39;100.00;100332.91;5045676;28;20045;-83
2021/10/31 01:28:25;;;;;;;95.30;67.07;;;;;;;10.49;100.00;100329.78;5043581;28;20072;-84
2021/10/31 01:31:04;;;;;;;85.18;64.60;;;;;;;10.31;100.00;100330.63;5048712;28;20099;-79
2021/10/31 01:33:40;;;;;;;93.57;68.55;;;;;;;10.34;100.00;100330.50;5045700;28;20488;-83
2021/10/31 01:36:33;;;;;;;95.28;66.15;;;;;;;10.32;100.00;100326.28;5043004;28;20570;-81
2021/10/31 01:39:21;;;;;;;93.88;69.70;;;;;;;10.45;100.00;100333.44;5042312;28;20407;-83
2021/10/31 01:42:04;;;;;;;96.70;69.88;;;;;;;10.38;100.00;100339.00;5051211;28;20442;-82
2021/10/31 01:44:54;;;;;;;94.45;66.20;;;;;;;10.52;100.00;100330.53;5046254;28;20059;-83
2021/10/31 01:47:59;;;;;;;93.65;66.85;;;;;;;10.39;100.00;100331.13;5045506;28;20392;-83
2021/10/31 01:50:39;;;;;;;92.47;65.70;;;;;;;10.37;100.00;100330.34;5046355;28;20120;-83
2021/10/31 01:53:17;;;;;;;92.85;68.70;;;;;;;10.35;100.00;100323.53;5047480;28;20043;-82
2021/10/31 01:56:00;;;;;;;98.38;67.72;;;;;;;10.49;100.00;100323.69;5043473;28;20049;-83
2021/10/31 01:58:32;;;;;;;92.50;68.60;;;;;;;10.37;100.00;100324.28;5045053;28;20529;-82
2021/10/31 02:01:00;;;;;;;90.85;62.88;;;;;;;10.32;100.00;100323.66;5051617;28;20033;-83
2021/10/31 02:03:31;;;;;;;91.80;65.63;;;;;;;10.33;100.00;100317.53;5054801;28;20135;-83
2021/10/31 02:06:00;;;;;;;97.05;67.72;;;;;;;10.37;100.00;100325.13;5054957;28;20049;-82
2021/10/31 02:08:27;;;;;;;90.20;66.78;;;;;;;10.34;100.00;100320.09;5055048;28;20041;-83
2021/10/31 02:10:57;;;;;;;96.43;68.78;;;;;;;10.37;100.00;100309.50;5055289;28;20045;-83
2021/10/31 02:13:28;;;;;;;98.38;68.50;;;;;;;10.33;100.00;100305.34;5066016;28;20060;-84
2021/10/31 02:15:57;;;;;;;91.93;64.18;;;;;;;10.56;100.00;100293.81;5060137;28;20071;-84
2021/10/31 02:18:26;;;;;;;92.88;67.68;;;;;;;10.61;100.00;100291.00;5056067;28;20059;-85
2021/10/31 02:20:57;;;;;;;91.70;65.93;;;;;;;10.40;100.00;100293.72;5055561;28;20095;-83
2021/10/31 02:23:25;;;;;;;92.93;65.43;;;;;;;10.45;100.00;100291.75;5054806;28;20491;-85
2021/10/31 02:25:52;;;;;;;91.10;65.70;;;;;;;10.39;100.00;100292.03;5055155;28;20385;-82
2021/10/31 02:28:20;;;;;;;93.32;70.13;;;;;;;10.38;100.00;100292.09;5053318;28;20037;-86
2021/10/31 02:30:48;;;;;;;90.60;65.93;;;;;;;10.39;100.00;100291.22;5054534;28;20044;-85
2021/10/31 02:33:15;;;;;;;86.18;61.85;;;;;;;10.38;100.00;100299.91;5054429;28;20086;-88
2021/10/31 02:35:42;;;;;;;89.53;64.07;;;;;;;10.40;100.00;100295.50;5054366;28;20426;-88
2021/10/31 02:38:08;;;;;;;93.80;68.10;;;;;;;10.39;100.00;100297.25;5054499;28;20043;-88
2021/10/31 02:40:36;;;;;;;97.07;69.15;;;;;;;10.36;100.00;100284.38;5054472;28;20044;-88
2021/10/31 02:43:05;;;;;;;95.18;67.90;;;;;;;10.41;100.00;100291.97;5054622;28;20045;-88
2021/10/31 02:45:32;;;;;;;96.15;65.05;;;;;;;10.46;100.00;100295.19;5053106;28;20045;-85
2021/10/31 02:48:09;;;;;;;97.60;65.10;;;;;;;10.41;100.00;100300.63;5054438;28;20099;-85
2021/10/31 02:50:46;;;;;;;91.60;65.03;;;;;;;10.47;100.00;100300.31;5054018;28;20071;-84
2021/10/31 02:53:44;;;;;;;97.72;67.13;;;;;;;10.54;100.00;100298.25;5054202;28;20037;-86
2021/10/31 02:56:17;;;;;;;95.93;67.15;;;;;;;10.53;100.00;100291.34;5039944;28;20045;-81
2021/10/31 02:58:45;;;;;;;90.72;64.53;;;;;;;10.56;100.00;100291.22;5054152;28;20051;-83
2021/10/31 03:01:15;;;;;;;96.72;66.97;;;;;;;10.54;100.00;100294.81;5053475;28;20044;-82
2021/10/31 03:03:42;;;;;;;95.15;63.35;;;;;;;10.43;100.00;100287.50;5053824;28;20044;-80
2021/10/31 03:06:11;;;;;;;88.35;61.95;;;;;;;10.46;100.00;100290.81;5051697;28;20045;-82
2021/10/31 03:08:39;;;;;;;89.30;63.35;;;;;;;10.38;100.00;100287.72;5053502;28;20098;-83
2021/10/31 03:11:08;;;;;;;91.03;63.03;;;;;;;10.38;100.00;100279.91;5052174;28;20086;-82
2021/10/31 03:13:36;;;;;;;98.03;66.28;;;;;;;10.30;100.00;100284.66;5053778;28;20044;-79
2021/10/31 03:16:04;;;;;;;92.43;63.25;;;;;;;10.38;100.00;100279.91;5053692;28;20045;-80
2021/10/31 03:18:32;;;;;;;98.30;61.78;;;;;;;10.38;100.00;100285.13;5053520;28;20068;-81
2021/10/31 03:20:59;;;;;;;96.35;63.10;;;;;;;10.46;100.00;100283.00;5053471;28;20041;-81
2021/10/31 03:23:27;;;;;;;97.22;65.45;;;;;;;10.42;100.00;100281.44;5053167;28;20087;-80
2021/10/31 03:25:56;;;;;;;91.18;62.08;;;;;;;10.42;100.00;100289.28;5053758;28;20118;-80
2021/10/31 03:28:22;;;;;;;88.90;62.90;;;;;;;10.47;100.00;100291.66;5052887;28;20099;-81
2021/10/31 03:30:49;;;;;;;94.88;62.70;;;;;;;10.38;100.00;100282.50;5053484;28;20080;-83
2021/10/31 03:33:16;;;;;;;90.18;61.85;;;;;;;10.50;100.00;100283.69;5052064;28;20041;-83
2021/10/31 03:35:43;;;;;;;88.47;61.03;;;;;;;10.67;100.00;100286.31;5053592;28;20048;-83
2021/10/31 03:38:10;;;;;;;89.20;63.78;;;;;;;10.47;100.00;100276.03;5053061;28;20080;-82
2021/10/31 03:40:36;;;;;;;90.13;61.42;;;;;;;10.54;100.00;100279.16;5053213;28;20148;-81
2021/10/31 03:43:04;;;;;;;89.60;61.58;;;;;;;10.54;100.00;100281.78;5033469;28;20087;-82
2021/10/31 03:45:31;;;;;;;95.85;59.78;;;;;;;10.51;100.00;100274.13;5048176;28;20052;-82
2021/10/31 03:47:58;;;;;;;83.93;58.58;;;;;;;10.48;100.00;100275.94;5053360;28;20547;-82
2021/10/31 03:50:25;;;;;;;86.30;59.00;;;;;;;10.45;100.00;100273.50;5052658;28;20033;-82
2021/10/31 03:52:55;;;;;;;82.65;59.65;;;;;;;10.46;100.00;100272.56;5052878;28;20064;-80
2021/10/31 03:55:21;;;;;;;90.90;59.15;;;;;;;10.44;100.00;100274.44;5052748;28;20033;-81
2021/10/31 03:57:49;;;;;;;87.63;58.65;;;;;;;10.49;100.00;100267.22;5052802;28;20041;-81
2021/10/31 04:00:16;;;;;;;83.95;58.03;;;;;;;10.37;100.00;100262.59;5052412;28;20048;-82
2021/10/31 04:02:44;;;;;;;86.75;57.45;;;;;;;10.49;100.00;100266.34;5052638;28;20049;-81
2021/10/31 04:05:12;;;;;;;87.20;58.42;;;;;;;10.63;100.00;100263.91;5051108;28;20040;-81
2021/10/31 04:07:40;;;;;;;92.20;60.65;;;;;;;10.57;100.00;100268.59;5052358;28;20503;-82
2021/10/31 04:10:07;;;;;;;89.68;56.10;;;;;;;10.80;100.00;100262.22;5052983;28;20049;-83
2021/10/31 04:12:35;;;;;;;81.95;57.28;;;;;;;10.67;100.00;100260.25;5052521;28;20049;-83
2021/10/31 04:15:04;;;;;;;83.68;57.65;;;;;;;10.45;100.00;100255.25;5052751;28;20087;-84
2021/10/31 04:17:31;;;;;;;87.43;57.55;;;;;;;10.54;100.00;100260.91;5052358;28;20065;-85
2021/10/31 04:19:58;;;;;;;89.10;58.95;;;;;;;10.66;100.00;100252.50;5053077;28;20044;-82
2021/10/31 04:22:27;;;;;;;87.80;57.60;;;;;;;10.49;100.00;100256.81;5052438;28;20041;-80
2021/10/31 04:24:54;;;;;;;84.20;57.25;;;;;;;10.61;100.00;100265.78;5052575;28;20592;-81
2021/10/31 04:27:21;;;;;;;97.40;59.45;;;;;;;10.57;100.00;100263.38;5051930;28;20503;-81
2021/10/31 04:29:48;;;;;;;84.15;58.83;;;;;;;10.67;100.00;100269.84;5052257;28;20084;-81
2021/10/31 04:32:14;;;;;;;89.30;58.15;;;;;;;10.74;100.00;100264.22;5052497;28;20040;-81
2021/10/31 04:34:44;;;;;;;92.22;59.08;;;;;;;10.47;100.00;100261.22;5052425;28;20063;-81
2021/10/31 04:37:11;;;;;;;89.55;57.53;;;;;;;10.54;100.00;100266.97;5058110;28;20371;-81
2021/10/31 04:39:38;;;;;;;85.95;56.15;;;;;;;10.79;100.00;100256.16;5057325;28;20037;-81
2021/10/31 04:42:06;;;;;;;89.38;60.05;;;;;;;10.86;100.00;100259.31;5052838;28;20459;-80
2021/10/31 04:44:37;;;;;;;86.80;58.95;;;;;;;10.94;100.00;100260.59;5053837;28;20071;-81
2021/10/31 04:47:05;;;;;;;90.00;59.60;;;;;;;11.00;100.00;100267.28;5056886;28;20090;-82
2021/10/31 04:49:33;;;;;;;86.78;57.75;;;;;;;10.72;100.00;100255.66;5056152;28;20070;-82
2021/10/31 04:52:01;;;;;;;96.40;60.58;;;;;;;10.82;100.00;100247.38;5056243;28;20045;-83
2021/10/31 04:54:27;;;;;;;95.70;63.08;;;;;;;10.90;100.00;100251.25;5055988;28;20055;-81
2021/10/31 04:56:55;;;;;;;98.38;62.58;;;;;;;10.77;100.00;100254.56;5056968;28;20041;-81
2021/10/31 04:59:22;;;;;;;98.00;63.13;;;;;;;10.80;100.00;100244.81;5062227;28;20041;-81
2021/10/31 05:01:49;;;;;;;89.97;62.22;;;;;;;10.90;100.00;100253.84;5055941;28;20107;-82
2021/10/31 05:04:18;;;;;;;89.00;59.13;;;;;;;10.85;100.00;100248.03;5054928;28;20147;-82
2021/10/31 05:06:45;;;;;;;89.30;59.97;;;;;;;11.05;100.00;100246.19;5055918;28;20090;-82
2021/10/31 05:09:12;;;;;;;94.60;62.65;;;;;;;11.09;100.00;100243.34;5056124;28;20091;-83
2021/10/31 05:11:39;;;;;;;87.75;61.80;;;;;;;10.98;100.00;100243.88;5055963;28;20479;-83
2021/10/31 05:14:06;;;;;;;97.45;65.10;;;;;;;10.91;100.00;100237.28;5056341;28;20033;-83
2021/10/31 05:16:35;;;;;;;96.78;62.35;;;;;;;10.94;100.00;100234.53;5055722;28;20048;-84
2021/10/31 05:19:03;;;;;;;94.75;62.10;;;;;;;10.82;100.00;100232.56;5056449;28;20092;-84
2021/10/31 05:21:31;;;;;;;94.75;64.63;;;;;;;10.85;100.00;100231.53;5055658;28;20376;-83
2021/10/31 05:23:58;;;;;;;88.00;57.50;;;;;;;10.79;100.00;100231.88;5055858;28;20041;-83
2021/10/31 05:26:25;;;;;;;94.70;59.88;;;;;;;10.85;100.00;100232.38;5055743;28;20387;-82
2021/10/31 05:28:54;;;;;;;92.53;62.13;;;;;;;10.79;100.00;100237.91;5035655;28;20037;-85
2021/10/31 05:31:22;;;;;;;93.88;61.67;;;;;;;10.62;100.00;100232.72;5050528;28;20044;-83
2021/10/31 05:33:52;;;;;;;98.75;64.30;;;;;;;10.64;100.00;100223.88;5055931;28;20495;-83
2021/10/31 05:36:19;;;;;;;95.40;61.65;;;;;;;10.85;100.00;100235.00;5054316;28;20431;-84
2021/10/31 05:38:46;;;;;;;90.03;60.30;;;;;;;10.91;100.00;100232.06;5054937;28;20052;-83
2021/10/31 05:41:14;;;;;;;99.50;62.25;;;;;;;10.95;100.00;100227.53;5056041;28;20045;-84
2021/10/31 05:43:42;;;;;;;91.78;59.55;;;;;;;10.78;100.00;100225.81;5055377;28;20158;-92
2021/10/31 05:46:10;;;;;;;88.47;59.33;;;;;;;10.82;100.00;100232.56;5047145;28;20506;-89
2021/10/31 05:48:37;;;;;;;102.85;60.50;;;;;;;10.90;100.00;100229.53;5043458;28;20037;-91
2021/10/31 05:51:06;;;;;;;95.13;61.42;;;;;;;10.86;100.00;100228.00;5049283;28;20397;-90
2021/10/31 05:53:33;;;;;;;103.43;64.18;;;;;;;10.64;100.00;100223.88;5046931;28;20473;-90
2021/10/31 05:56:00;;;;;;;93.93;57.63;;;;;;;10.84;100.00;100229.88;5046772;28;20037;-91
2021/10/31 05:58:27;;;;;;;97.25;59.63;;;;;;;10.84;100.00;100229.88;5053856;28;20045;-90
2021/10/31 06:00:54;;;;;;;105.38;61.05;;;;;;;10.58;100.00;100215.53;5048745;28;20045;-88
2021/10/31 06:03:23;;;;;;;95.18;60.60;;;;;;;10.67;100.00;100222.91;5045239;28;20132;-89
2021/10/31 06:05:50;;;;;;;88.38;61.60;;;;;;;10.84;100.00;100225.50;5045062;28;20056;-90
2021/10/31 06:08:17;;;;;;;87.03;57.08;;;;;;;10.86;100.00;100231.44;5049511;28;20052;-90
2021/10/31 06:10:45;;;;;;;93.97;60.60;;;;;;;10.80;100.00;100236.16;5049188;28;20039;-90
2021/10/31 06:13:29;;;;;;;95.90;60.47;;;;;;;10.91;100.00;100231.22;5044266;28;20505;-89
2021/10/31 06:15:55;;;;;;;88.75;58.42;;;;;;;10.86;100.00;100233.22;5046004;28;20044;-89
2021/10/31 06:18:23;;;;;;;98.55;59.05;;;;;;;10.83;100.00;100231.63;5047633;28;20037;-91
2021/10/31 06:20:50;;;;;;;100.78;61.70;;;;;;;10.87;100.00;100235.78;5052461;28;20041;-89
2021/10/31 06:23:19;;;;;;;98.85;63.53;;;;;;;10.89;100.00;100236.53;5047454;28;20052;-89
2021/10/31 06:25:46;;;;;;;96.18;60.42;;;;;;;10.96;100.00;100239.66;5055949;28;20064;-89
2021/10/31 06:28:13;;;;;;;96.55;61.60;;;;;;;10.75;100.00;100228.56;5061693;28;20407;-91
2021/10/31 06:30:40;;;;;;;103.30;64.13;;;;;;;10.68;100.00;100238.47;5053873;28;20037;-92
2021/10/31 06:33:09;;;;;;;97.82;62.35;;;;;;;10.63;100.00;100234.41;5049178;28;20033;-90
2021/10/31 06:35:37;;;;;;;95.20;62.55;;;;;;;10.73;100.00;100233.03;5050166;28;20033;-90
2021/10/31 06:38:06;;;;;;;104.03;64.38;;;;;;;10.75;100.00;100237.22;5049257;28;20494;-90
2021/10/31 06:40:33;;;;;;;108.28;64.07;;;;;;;10.80;100.00;100239.59;5054088;28;20053;-89
2021/10/31 06:43:01;;;;;;;95.10;60.97;;;;;;;11.06;100.00;100245.25;5047230;28;20037;-89
2021/10/31 06:45:29;;;;;;;104.90;63.65;;;;;;;11.14;100.00;100241.31;5048644;28;20060;-87
2021/10/31 06:47:56;;;;;;;110.20;70.85;;;;;;;11.08;100.00;100240.78;5047233;28;20128;-88
2021/10/31 06:50:23;;;;;;;107.85;64.22;;;;;;;11.11;100.00;100238.03;5048900;28;20037;-88
2021/10/31 06:52:51;;;;;;;114.28;64.82;;;;;;;11.08;100.00;100243.38;5049810;28;20049;-93
2021/10/31 06:55:19;;;;;;;101.45;61.05;;;;;;;11.12;100.00;100243.16;5047102;28;20128;-93
2021/10/31 06:57:45;;;;;;;93.43;58.72;;;;;;;11.10;100.00;100242.41;5059295;28;20128;-92
2021/10/31 07:00:13;;;;;;;102.80;65.50;;;;;;;11.30;100.00;100249.19;5050288;28;20049;-90
2021/10/31 07:02:40;;;;;;;103.28;61.45;;;;;;;11.42;100.00;100240.69;5075409;28;20068;-91
2021/10/31 07:05:08;;;;;;;101.43;62.95;;;;;;;11.20;100.00;100240.16;5060291;28;20033;-81
2021/10/31 07:07:35;;;;;;;102.20;59.00;;;;;;;11.18;100.00;100239.38;5055494;28;20051;-81
2021/10/31 07:10:03;;;;;;;97.15;63.00;;;;;;;11.11;100.00;100231.03;5044923;28;20060;-84
2021/10/31 07:12:30;;;;;;;100.50;60.10;;;;;;;11.15;100.00;100234.34;5051350;28;20069;-82
2021/10/31 07:14:59;;;;;;;103.82;66.93;;;;;;;11.15;100.00;100240.41;5049247;28;20049;-82
2021/10/31 07:17:26;;;;;;;109.18;62.05;;;;;;;11.20;100.00;100242.78;5050648;28;20109;-83
2021/10/31 07:19:53;;;;;;;98.10;59.63;;;;;;;11.28;100.00;100243.19;5048875;28;20061;-84
2021/10/31 07:22:20;;;;;;;95.57;62.33;;;;;;;11.35;100.00;100244.56;5045752;28;20037;-85
2021/10/31 07:24:49;;;;;;;105.82;64.70;;;;;;;11.34;100.00;100240.25;5041694;28;20379;-85
2021/10/31 07:27:16;;;;;;;97.07;61.05;;;;;;;11.30;100.00;100245.75;5027326;28;20060;-82
2021/10/31 07:29:47;;;;;;;97.00;63.15;;;;;;;11.22;100.00;100246.97;5047020;28;20044;-80
2021/10/31 07:32:17;;;;;;;96.78;62.22;;;;;;;11.41;100.00;100252.06;5045445;28;20482;-81
2021/10/31 07:34:44;;;;;;;97.80;61.22;;;;;;;11.50;100.00;100250.72;5046359;28;20045;-85
2021/10/31 07:37:13;;;;;;;97.20;59.15;;;;;;;11.37;100.00;100254.91;5049468;28;20044;-83
2021/10/31 07:39:41;;;;;;;86.13;57.22;;;;;;;11.27;100.00;100260.63;5050253;28;20041;-84
2021/10/31 07:42:09;;;;;;;94.78;58.45;;;;;;;11.40;100.00;100250.38;5043765;28;20040;-81
2021/10/31 07:44:37;;;;;;;99.07;62.03;;;;;;;11.40;100.00;100245.16;5047748;28;20053;-84
2021/10/31 07:47:03;;;;;;;98.07;59.63;;;;;;;11.50;100.00;100245.50;5047675;28;20034;-83
2021/10/31 07:49:30;;;;;;;93.93;58.00;;;;;;;11.59;99.93;100244.16;5047303;28;20045;-87
2021/10/31 07:51:57;;;;;;;89.60;55.03;;;;;;;11.49;99.44;100247.25;5041126;28;20402;-84
2021/10/31 07:54:26;;;;;;;86.40;55.05;;;;;;;11.64;100.00;100256.03;5040832;28;20040;-85
2021/10/31 07:56:59;;;;;;;92.43;55.00;;;;;;;11.62;98.46;100249.25;5050833;28;20041;-85
2021/10/31 07:59:28;;;;;;;83.97;56.00;;;;;;;11.54;100.00;100247.88;5045868;28;20435;-84
2021/10/31 08:01:56;;;;;;;86.63;52.33;;;;;;;11.42;100.00;100255.53;5041522;28;20056;-84
2021/10/31 08:04:23;;;;;;;90.35;54.72;;;;;;;11.42;100.00;100256.38;5043386;28;20103;-86
2021/10/31 08:06:53;;;;;;;86.63;54.75;;;;;;;11.62;100.00;100257.06;5048279;28;20037;-91
2021/10/31 08:09:20;;;;;;;85.30;54.13;;;;;;;11.49;100.00;100247.25;5046457;28;20135;-94
2021/10/31 08:11:46;;;;;;;81.57;54.30;;;;;;;11.57;100.00;100246.03;5028229;28;20052;-85
2021/10/31 08:14:14;;;;;;;88.32;55.75;;;;;;;11.71;100.00;100243.50;5042201;28;20053;-85
2021/10/31 08:16:41;;;;;;;78.68;50.95;;;;;;;11.63;100.00;100245.69;5050207;28;20041;-87
2021/10/31 08:19:11;;;;;;;74.35;49.80;;;;;;;11.50;100.00;100241.16;5043876;28;20102;-89
2021/10/31 08:21:41;;;;;;;80.90;52.63;;;;;;;11.43;100.00;100239.78;5043455;28;20057;-87
2021/10/31 08:24:09;;;;;;;80.90;51.80;;;;;;;11.31;100.00;100239.59;5040015;28;20049;-88
2021/10/31 08:26:39;;;;;;;81.13;50.80;;;;;;;11.46;100.00;100234.41;5037515;28;20044;-86
2021/10/31 08:29:06;;;;;;;79.10;50.28;;;;;;;11.67;100.00;100231.56;5044986;28;20495;-82
2021/10/31 08:31:38;;;;;;;83.78;52.75;;;;;;;11.66;99.66;100229.84;5043819;28;20045;-84
2021/10/31 08:34:05;;;;;;;82.53;52.33;;;;;;;11.61;100.00;100226.63;5041398;28;20029;-86
2021/10/31 08:36:33;;;;;;;80.18;50.28;;;;;;;11.63;100.00;100225.66;5041425;28;20045;-88
2021/10/31 08:39:01;;;;;;;81.28;52.33;;;;;;;11.47;100.00;100224.78;5041961;28;20098;-89
2021/10/31 08:41:29;;;;;;;73.15;49.33;;;;;;;11.54;99.55;100219.16;5043022;28;20042;-87
2021/10/31 08:43:58;;;;;;;80.32;53.58;;;;;;;11.64;99.60;100226.50;5044303;28;20115;-84
2021/10/31 08:46:27;;;;;;;78.82;50.17;;;;;;;11.59;100.00;100220.66;5045190;28;20049;-85
2021/10/31 08:48:54;;;;;;;76.10;48.20;;;;;;;11.59;100.00;100211.06;5045929;28;20429;-83
2021/10/31 08:51:23;;;;;;;86.85;57.28;;;;;;;11.55;100.00;100207.78;5049453;28;20045;-86
2021/10/31 08:53:51;;;;;;;82.97;53.30;;;;;;;11.51;100.00;100211.50;5047111;28;20055;-88
2021/10/31 08:56:18;;;;;;;87.13;52.83;;;;;;;11.67;100.00;100215.88;5047248;28;20513;-86
2021/10/31 08:58:45;;;;;;;86.10;50.65;;;;;;;11.75;99.05;100205.84;5047611;28;20041;-88
2021/10/31 09:01:13;;;;;;;82.90;53.45;;;;;;;11.92;98.17;100208.38;5045243;28;20067;-84
2021/10/31 09:03:41;;;;;;;83.32;52.03;;;;;;;11.82;99.63;100209.81;5043788;28;20112;-94
2021/10/31 09:06:09;;;;;;;80.70;52.65;;;;;;;11.75;98.64;100211.91;5033086;28;20377;-84
2021/10/31 09:08:37;;;;;;;82.93;50.97;;;;;;;11.93;97.55;100207.47;5039621;28;20641;-88
2021/10/31 09:11:04;;;;;;;81.22;50.53;;;;;;;11.94;97.41;100197.88;5040894;28;20041;-82
2021/10/31 09:13:31;;;;;;;82.03;51.95;;;;;;;11.75;99.29;100204.06;5045037;28;20052;-92
2021/10/31 09:15:58;;;;;;;88.70;52.90;;;;;;;12.00;98.25;100198.34;5040336;28;20067;-86
2021/10/31 09:18:33;;;;;;;86.82;52.42;;;;;;;11.62;100.00;100207.47;5038625;28;20447;-85
2021/10/31 09:21:02;;;;;;;88.13;53.47;;;;;;;11.50;100.00;100208.94;5047012;28;20048;-87
2021/10/31 09:23:29;;;;;;;80.68;53.85;;;;;;;11.84;100.00;100202.75;5042699;28;20143;-89
2021/10/31 09:27:00;;;;;;;76.82;51.10;;;;;;;12.04;100.00;100207.72;5126337;27;20964;-83
2021/10/31 09:29:31;;;;;;;77.65;49.95;;;;;;;12.32;100.00;100204.34;5126471;28;20047;-78
2021/10/31 09:33:43;;;;;;;84.22;54.45;;;;;;;12.09;99.25;100206.59;5085412;27;20165;-78
2021/10/31 09:36:12;;;;;;;87.53;53.75;;;;;;;12.22;97.87;100202.38;5062501;28;20072;-76
2021/10/31 09:38:39;;;;;;;75.82;50.22;;;;;;;12.27;96.93;100206.41;5060471;28;20128;-77
2021/10/31 09:41:06;;;;;;;76.28;50.00;;;;;;;12.39;96.40;100199.59;5061995;28;20191;-76
2021/10/31 09:43:44;;;;;;;83.18;52.85;;;;;;;12.42;95.76;100203.84;5053618;28;20055;-76
2021/10/31 09:46:12;;;;;;;79.70;52.35;;;;;;;12.29;96.28;100195.84;5049224;28;20056;-74
2021/10/31 09:48:39;;;;;;;74.90;51.10;;;;;;;12.37;95.68;100188.41;5059088;28;20041;-77
2021/10/31 09:51:06;;;;;;;78.15;51.53;;;;;;;12.27;96.25;100185.47;5056230;28;20049;-75
2021/10/31 09:53:33;;;;;;;77.07;51.97;;;;;;;12.39;96.63;100183.09;5061408;28;20045;-76
2021/10/31 09:56:00;;;;;;;76.03;50.25;;;;;;;12.21;96.31;100179.78;5062166;28;20044;-79
2021/10/31 09:58:39;;;;;;;75.18;50.67;;;;;;;12.19;96.42;100177.22;5064902;28;20391;-79
2021/10/31 10:01:25;;;;;;;81.80;51.28;;;;;;;12.22;97.34;100178.84;5057775;28;20435;-82
2021/10/31 10:03:56;;;;;;;80.30;53.28;;;;;;;12.34;96.55;100170.28;5049218;28;20099;-79
2021/10/31 10:06:25;;;;;;;76.05;50.78;;;;;;;12.18;96.22;100164.25;5052726;28;20059;-80
2021/10/31 10:09:04;;;;;;;77.30;51.92;;;;;;;12.21;96.30;100170.16;5037075;28;20033;-80
2021/10/31 10:11:36;;;;;;;72.35;48.85;;;;;;;12.30;95.68;100159.19;5052400;28;20049;-85
2021/10/31 10:14:23;;;;;;;76.13;50.38;;;;;;;12.46;95.03;100166.09;5056013;28;20041;-78
2021/10/31 10:17:11;;;;;;;76.50;51.05;;;;;;;12.37;96.39;100162.28;5053457;28;20042;-80
2021/10/31 10:19:47;;;;;;;78.82;52.28;;;;;;;12.19;96.47;100156.31;5050863;28;20431;-82
2021/10/31 10:22:18;;;;;;;81.82;53.78;;;;;;;12.06;97.68;100153.59;5048209;28;20061;-81
2021/10/31 10:24:55;;;;;;;76.40;51.05;;;;;;;11.95;97.78;100149.91;5049227;28;20037;-84
2021/10/31 10:27:27;;;;;;;84.18;54.45;;;;;;;12.11;97.29;100144.66;5047650;28;20045;-82
2021/10/31 10:29:56;;;;;;;84.10;52.40;;;;;;;12.27;95.95;100142.81;5047603;28;20480;-82
2021/10/31 10:32:27;;;;;;;79.75;50.85;;;;;;;12.47;95.12;100137.28;5061275;28;20060;-85
2021/10/31 10:34:57;;;;;;;81.45;53.00;;;;;;;12.46;94.91;100138.19;5085372;28;20063;-81
2021/10/31 10:37:25;;;;;;;82.78;52.58;;;;;;;12.49;96.05;100129.31;5074032;28;20036;-83
2021/10/31 10:39:55;;;;;;;79.93;55.95;;;;;;;12.51;95.45;100124.84;5073759;28;20366;-83
2021/10/31 10:42:25;;;;;;;73.35;50.55;;;;;;;12.49;94.26;100129.31;5074529;28;20044;-82
2021/10/31 10:44:57;;;;;;;85.30;54.05;;;;;;;12.45;94.80;100136.50;5054663;28;20123;-82
2021/10/31 10:47:24;;;;;;;86.97;56.33;;;;;;;12.44;94.74;100124.38;5039946;28;20048;-78
2021/10/31 10:49:58;;;;;;;83.57;50.70;;;;;;;12.57;94.92;100130.56;5057781;28;20408;-83
2021/10/31 10:52:40;;;;;;;86.57;52.00;;;;;;;12.47;93.78;100124.19;5056032;28;20140;-79
2021/10/31 10:55:19;;;;;;;73.80;52.45;;;;;;;12.56;93.69;100118.41;5057660;28;20503;-82
2021/10/31 10:57:53;;;;;;;74.30;49.47;;;;;;;12.45;94.51;100127.81;5057660;28;20040;-82
2021/10/31 11:00:31;;;;;;;82.93;54.13;;;;;;;12.29;94.65;100120.03;5059374;28;20108;-80
2021/10/31 11:03:02;;;;;;;81.47;53.13;;;;;;;12.50;94.87;100110.91;5045881;28;20036;-83
2021/10/31 11:05:32;;;;;;;74.95;51.25;;;;;;;12.65;94.55;100111.78;5067255;28;20033;-82
2021/10/31 11:08:00;;;;;;;84.68;52.35;;;;;;;12.58;95.28;100100.03;5058123;28;20040;-79
2021/10/31 11:10:30;;;;;;;81.00;53.45;;;;;;;12.59;94.82;100113.00;5058508;28;20055;-79
2021/10/31 11:13:00;;;;;;;75.63;51.67;;;;;;;12.55;94.21;100113.25;5057318;28;20040;-78
2021/10/31 11:15:30;;;;;;;78.93;52.17;;;;;;;12.54;95.00;100109.81;5063304;28;20441;-87
2021/10/31 11:18:00;;;;;;;76.13;54.10;;;;;;;12.58;95.01;100106.09;5059337;28;20072;-79